MSC Cordoba — A8OF8 — position and weather

sailwx.info

Track history (hours):
 
Tides and Currents Weather Stations Pressure Air Temp Water Temp Dewpoint Dewpoint Depression Visibility Wind Speed Wind Dir Waves Ship Positions

MSC Cordoba

Last reported at 2016-Aug-28 19:24 UTC. Time now 2016-Aug-28 20:42 UTC.
Position N 35°57' W 005°42'.

Length 274 m; draft 10.1 m.

Type: Ship (hazmat cat A). MMSI: 636091473.

Date/timePositionNaut miles runAvg speedWind from/ knotsBaromVisibWave heightAir tempDewpointWater temp
2016-Aug-28 19:24N 35°57' W 005°42'1518.2
2016-Aug-28 18:33N 36°00' W 005°24'1816.0
2016-Aug-28 17:25N 36°04' W 005°02'1817.7
2016-Aug-28 16:24N 36°08' W 004°40'10718.0
2016-Aug-28 10:27N 36°24' W 002°29'5820.0
2016-Aug-28 07:33N 36°32' W 001°17'2019.9
2016-Aug-28 06:33N 36°36' W 000°53'2019.7
2016-Aug-28 05:33N 36°38' W 000°29'2019.8
2016-Aug-28 04:32N 36°40' W 000°04'2019.7
2016-Aug-28 03:31N 36°42' E 000°21'1919.2
2016-Aug-28 02:33N 36°45' E 000°44'2019.3
2016-Aug-28 01:32N 36°48' E 001°08'1919.4
2016-Aug-28 00:33N 36°51' E 001°32'2019.6
2016-Aug-27 23:33N 36°54' E 001°56'2019.8
2016-Aug-27 22:31N 36°57' E 002°21'1919.4
2016-Aug-27 21:33N 37°00' E 002°44'13819.7
2016-Aug-27 14:32N 37°18' E 005°36'16819.7
2016-Aug-27 06:00N 37°36' E 009°06'5620.7 090 / 141018.410.8 0.526.012.125.0
2016-Aug-27 03:17N 37°39' E 010°17'5520.0
2016-Aug-27 00:32N 37°23' E 011°23'2020.1
2016-Aug-26 23:34N 37°14' E 011°45'2019.7
2016-Aug-26 22:34N 37°06' E 012°08'2019.7
2016-Aug-26 21:34N 37°00' E 012°32'6019.8
2016-Aug-26 18:30N 36°42' E 013°43'1919.8
2016-Aug-26 17:34N 36°37' E 014°06'2020.2
2016-Aug-26 16:34N 36°31' E 014°30'48318.5
2016-Aug-25 14:32N 37°39' E 024°29'27014.1
2016-Aug-24 19:21N 40°26' E 029°02'  
2016-Aug-22 13:30N 40°51' E 028°47'9 9.6
2016-Aug-22 12:33N 40°45' E 028°56'1414.6
2016-Aug-22 11:33N 40°44' E 029°15'13 1.8
2016-Aug-22 04:31N 40°46' E 029°32'0 0.0
2016-Aug-22 01:23N 40°46' E 029°32'0 0.0
2016-Aug-21 13:28N 40°46' E 029°32'5 5.5
2016-Aug-21 12:31N 40°44' E 029°26'9 9.7
2016-Aug-21 11:33N 40°44' E 029°13'1615.7
2016-Aug-21 10:33N 40°44' E 028°52'27015.7
2016-Aug-20 17:23N 37°43' E 024°34'2019.0
2016-Aug-20 16:21N 37°28' E 024°18'4119.1
2016-Aug-20 14:13N 36°57' E 023°45'1718.6
2016-Aug-20 13:16N 36°44' E 023°31'39419.8
2016-Aug-19 17:22N 36°27' E 015°21'1720.2
2016-Aug-19 16:31N 36°27' E 014°60'1919.9
2016-Aug-19 15:34N 36°29' E 014°36'2020.4
2016-Aug-19 14:33N 36°34' E 014°12'2120.9
2016-Aug-19 13:33N 36°40' E 013°47'2121.3
2016-Aug-19 12:33N 36°46' E 013°21'2121.2
2016-Aug-19 11:33N 36°52' E 012°56'2120.6
2016-Aug-19 10:33N 36°59' E 012°32'2520.9
2016-Aug-19 09:22N 37°07' E 012°02'1720.9
2016-Aug-19 08:33N 37°12' E 011°42'2721.0
2016-Aug-19 07:15N 37°21' E 011°09'1520.6
2016-Aug-19 06:32N 37°25' E 010°51'1222.7
2016-Aug-19 06:00N 37°24' E 010°36'1122.9 130 / 51012.910.8 31.518.125.0
2016-Aug-19 05:32N 37°32' E 010°27'1919.6
2016-Aug-19 04:33N 37°35' E 010°03'2020.5
2016-Aug-19 03:33N 37°36' E 009°37'2120.9
2016-Aug-19 02:33N 37°36' E 009°11'2120.6
2016-Aug-19 01:32N 37°37' E 008°44'2120.5
2016-Aug-19 00:29N 37°34' E 008°17'  
Track history (hours):
 
Tides and Currents Weather Stations Pressure Air Temp Water Temp Dewpoint Dewpoint Depression Visibility Wind Speed Wind Dir Waves Ship Positions

MSC Cordoba

Last reported at 2016-Aug-28 19:24 UTC. Time now 2016-Aug-28 20:42 UTC.
Position N 35°57' W 005°42'.

Length 274 m; draft 10.1 m.

Type: Ship (hazmat cat A). MMSI: 636091473.

Date/timePositionNaut miles runAvg speedWind from/ knotsBaromVisibWave heightAir tempDewpointWater temp
2016-Aug-28 19:24N 35°57' W 005°42'1518.2
2016-Aug-28 18:33N 36°00' W 005°24'1816.0
2016-Aug-28 17:25N 36°04' W 005°02'1817.7
2016-Aug-28 16:24N 36°08' W 004°40'10718.0
2016-Aug-28 10:27N 36°24' W 002°29'5820.0
2016-Aug-28 07:33N 36°32' W 001°17'2019.9
2016-Aug-28 06:33N 36°36' W 000°53'2019.7
2016-Aug-28 05:33N 36°38' W 000°29'2019.8
2016-Aug-28 04:32N 36°40' W 000°04'2019.7
2016-Aug-28 03:31N 36°42' E 000°21'1919.2
2016-Aug-28 02:33N 36°45' E 000°44'2019.3
2016-Aug-28 01:32N 36°48' E 001°08'1919.4
2016-Aug-28 00:33N 36°51' E 001°32'2019.6
2016-Aug-27 23:33N 36°54' E 001°56'2019.8
2016-Aug-27 22:31N 36°57' E 002°21'1919.4
2016-Aug-27 21:33N 37°00' E 002°44'13819.7
2016-Aug-27 14:32N 37°18' E 005°36'16819.7
2016-Aug-27 06:00N 37°36' E 009°06'5620.7 090 / 141018.410.8 0.526.012.125.0
2016-Aug-27 03:17N 37°39' E 010°17'5520.0
2016-Aug-27 00:32N 37°23' E 011°23'2020.1
2016-Aug-26 23:34N 37°14' E 011°45'2019.7
2016-Aug-26 22:34N 37°06' E 012°08'2019.7
2016-Aug-26 21:34N 37°00' E 012°32'6019.8
2016-Aug-26 18:30N 36°42' E 013°43'1919.8
2016-Aug-26 17:34N 36°37' E 014°06'2020.2
2016-Aug-26 16:34N 36°31' E 014°30'48318.5
2016-Aug-25 14:32N 37°39' E 024°29'27014.1
2016-Aug-24 19:21N 40°26' E 029°02'  
2016-Aug-22 13:30N 40°51' E 028°47'9 9.6
2016-Aug-22 12:33N 40°45' E 028°56'1414.6
2016-Aug-22 11:33N 40°44' E 029°15'13 1.8
2016-Aug-22 04:31N 40°46' E 029°32'0 0.0
2016-Aug-22 01:23N 40°46' E 029°32'0 0.0
2016-Aug-21 13:28N 40°46' E 029°32'5 5.5
2016-Aug-21 12:31N 40°44' E 029°26'9 9.7
2016-Aug-21 11:33N 40°44' E 029°13'1615.7
2016-Aug-21 10:33N 40°44' E 028°52'27015.7
2016-Aug-20 17:23N 37°43' E 024°34'2019.0
2016-Aug-20 16:21N 37°28' E 024°18'4119.1
2016-Aug-20 14:13N 36°57' E 023°45'1718.6
2016-Aug-20 13:16N 36°44' E 023°31'39419.8
2016-Aug-19 17:22N 36°27' E 015°21'1720.2
2016-Aug-19 16:31N 36°27' E 014°60'1919.9
2016-Aug-19 15:34N 36°29' E 014°36'2020.4
2016-Aug-19 14:33N 36°34' E 014°12'2120.9
2016-Aug-19 13:33N 36°40' E 013°47'2121.3
2016-Aug-19 12:33N 36°46' E 013°21'2121.2
2016-Aug-19 11:33N 36°52' E 012°56'2120.6
2016-Aug-19 10:33N 36°59' E 012°32'2520.9
2016-Aug-19 09:22N 37°07' E 012°02'1720.9
2016-Aug-19 08:33N 37°12' E 011°42'2721.0
2016-Aug-19 07:15N 37°21' E 011°09'1520.6
2016-Aug-19 06:32N 37°25' E 010°51'1222.7
2016-Aug-19 06:00N 37°24' E 010°36'1122.9 130 / 51012.910.8 31.518.125.0
2016-Aug-19 05:32N 37°32' E 010°27'1919.6
2016-Aug-19 04:33N 37°35' E 010°03'2020.5
2016-Aug-19 03:33N 37°36' E 009°37'2120.9
2016-Aug-19 02:33N 37°36' E 009°11'2120.6
2016-Aug-19 01:32N 37°37' E 008°44'2120.5
2016-Aug-19 00:29N 37°34' E 008°17'  

Dump ship's entire track history